In Rescue
 
Open Full Screen Window  High Contrast Mode
Wind Gusting 00 knots
15
April 02, 2020 11:30 PM CDT
Present Weather: Unknown Precipitation
Weather Information
Wind Direction
  330 °
Wind Speed
  15 kt (17 mph)
Wind Gust
  00 kt (0 mph)
Altimeter
29.97 in
Visibility
7 SM
Temperature
-04° C
25° F
Dewpoint
-06° C
21° F
Humidity
86%
1hr Rain Fall
00.00 in.
24hr Rain Fall
00.10 in.
Sky Condition
Missing
VFR

METAR KFGN 030430Z AUTO 33015KT 7SM UP M04/M06 A2997 RMK AO2

FAA Disclaimer: The data displayed is for advisory purposes only and is not to be used for flight planning or operations.
Missing Cloud Data